Edenton, Ohio
Current Conditions -  °F | °C
As of 9:54 AM on Monday 24 Nov 2014 (Local Time) from KILN Reporting Station
Overcast Overcast  
Wind Chill: 61°   Ceiling: 4700
Heat Index: 61°   Visibility: 10mi
Dew Point: 48°   Wind: 30mph
Humidity: 62%   Direction: 210°SSW
Pressure: 29.31"   Gusts: 43mph
Location:  39.2751°N, 84.0815°W
Report Text: KILN 241454Z AUTO 21026G37KT 10SM SCT038 BKN047 OVC080 16/09 A2931 RMK AO2 PK WND 20038/1417 SLP928 T01610089 56004
Loading
Personal Weather Stations






























Interactive Weather Map New forecast layout! Learn more

10-Day Weather Forecast

Advertisements
Track Severe Weather on mobile